sensor_id;sensor_type;location;lat;lon;timestamp;temperature;humidity
39277;DHT22;63149;48.086;-1.606;2022-11-15T06:00:49;11.90;99.90
39277;DHT22;63149;48.086;-1.606;2022-11-15T06:03:16;11.90;99.90
39277;DHT22;63149;48.086;-1.606;2022-11-15T06:05:43;11.90;99.90
39277;DHT22;63149;48.086;-1.606;2022-11-15T06:08:09;11.90;99.90
39277;DHT22;63149;48.086;-1.606;2022-11-15T06:10:36;11.90;99.90
39277;DHT22;63149;48.086;-1.606;2022-11-15T06:13:03;11.90;99.90
39277;DHT22;63149;48.086;-1.606;2022-11-15T06:15:31;11.90;99.90
39277;DHT22;63149;48.086;-1.606;2022-11-15T06:17:59;11.90;99.90
39277;DHT22;63149;48.086;-1.606;2022-11-15T06:20:26;11.90;99.90
39277;DHT22;63149;48.086;-1.606;2022-11-15T06:22:56;11.90;99.90
39277;DHT22;63149;48.086;-1.606;2022-11-15T06:25:22;11.90;99.90
39277;DHT22;63149;48.086;-1.606;2022-11-15T06:27:50;11.90;99.90
39277;DHT22;63149;48.086;-1.606;2022-11-15T06:30:17;11.90;99.90
39277;DHT22;63149;48.086;-1.606;2022-11-15T06:32:44;12.00;99.90
39277;DHT22;63149;48.086;-1.606;2022-11-15T06:35:12;12.00;99.90
39277;DHT22;63149;48.086;-1.606;2022-11-15T06:37:39;12.00;99.90
39277;DHT22;63149;48.086;-1.606;2022-11-15T06:40:06;11.90;99.90
39277;DHT22;63149;48.086;-1.606;2022-11-15T06:42:33;12.00;99.90
39277;DHT22;63149;48.086;-1.606;2022-11-15T06:44:59;12.00;99.90
39277;DHT22;63149;48.086;-1.606;2022-11-15T06:47:26;12.00;99.90
39277;DHT22;63149;48.086;-1.606;2022-11-15T06:49:53;12.00;99.90
39277;DHT22;63149;48.086;-1.606;2022-11-15T06:52:21;12.00;99.90
39277;DHT22;63149;48.086;-1.606;2022-11-15T06:54:48;12.10;99.90
39277;DHT22;63149;48.086;-1.606;2022-11-15T06:57:14;12.10;99.90
39277;DHT22;63149;48.086;-1.606;2022-11-15T06:59:41;12.10;99.90
39277;DHT22;63149;48.086;-1.606;2022-11-15T07:02:11;12.10;99.90
39277;DHT22;63149;48.086;-1.606;2022-11-15T07:04:38;12.10;99.90
39277;DHT22;63149;48.086;-1.606;2022-11-15T07:07:05;12.20;99.90
39277;DHT22;63149;48.086;-1.606;2022-11-15T07:09:33;12.20;99.90
39277;DHT22;63149;48.086;-1.606;2022-11-15T07:12:00;12.20;99.90
39277;DHT22;63149;48.086;-1.606;2022-11-15T07:14:26;12.20;99.90
39277;DHT22;63149;48.086;-1.606;2022-11-15T07:16:53;12.30;99.90
39277;DHT22;63149;48.086;-1.606;2022-11-15T07:19:20;12.30;99.90
39277;DHT22;63149;48.086;-1.606;2022-11-15T07:21:46;12.30;99.90
39277;DHT22;63149;48.086;-1.606;2022-11-15T07:24:13;12.30;99.90
39277;DHT22;63149;48.086;-1.606;2022-11-15T07:26:41;12.30;99.90
39277;DHT22;63149;48.086;-1.606;2022-11-15T07:29:08;12.30;99.90
39277;DHT22;63149;48.086;-1.606;2022-11-15T07:31:34;12.30;99.90
39277;DHT22;63149;48.086;-1.606;2022-11-15T07:34:02;12.30;99.90
39277;DHT22;63149;48.086;-1.606;2022-11-15T07:36:28;12.30;99.90
39277;DHT22;63149;48.086;-1.606;2022-11-15T07:38:55;12.30;99.90
39277;DHT22;63149;48.086;-1.606;2022-11-15T07:41:22;12.30;99.90
39277;DHT22;63149;48.086;-1.606;2022-11-15T07:43:52;12.30;99.90
39277;DHT22;63149;48.086;-1.606;2022-11-15T07:46:18;12.30;99.90
39277;DHT22;63149;48.086;-1.606;2022-11-15T07:48:45;12.30;99.90
39277;DHT22;63149;48.086;-1.606;2022-11-15T07:51:12;12.30;99.90
39277;DHT22;63149;48.086;-1.606;2022-11-15T07:53:39;12.30;99.90
39277;DHT22;63149;48.086;-1.606;2022-11-15T07:56:06;12.30;99.90
39277;DHT22;63149;48.086;-1.606;2022-11-15T07:58:33;12.30;99.90
39277;DHT22;63149;48.086;-1.606;2022-11-15T08:01:03;12.30;99.90
39277;DHT22;63149;48.086;-1.606;2022-11-15T08:03:30;12.30;99.90
39277;DHT22;63149;48.086;-1.606;2022-11-15T08:05:57;12.30;99.90
39277;DHT22;63149;48.086;-1.606;2022-11-15T08:08:23;12.40;99.90
39277;DHT22;63149;48.086;-1.606;2022-11-15T08:10:50;12.40;99.90
39277;DHT22;63149;48.086;-1.606;2022-11-15T08:13:17;12.40;99.90
39277;DHT22;63149;48.086;-1.606;2022-11-15T08:15:43;12.40;99.90
39277;DHT22;63149;48.086;-1.606;2022-11-15T08:18:12;12.40;99.90
39277;DHT22;63149;48.086;-1.606;2022-11-15T08:20:39;12.40;99.90
39277;DHT22;63149;48.086;-1.606;2022-11-15T08:23:06;12.40;99.90
39277;DHT22;63149;48.086;-1.606;2022-11-15T08:25:33;12.50;99.90
39277;DHT22;63149;48.086;-1.606;2022-11-15T08:28:01;12.50;99.90
39277;DHT22;63149;48.086;-1.606;2022-11-15T08:30:29;12.50;99.90
39277;DHT22;63149;48.086;-1.606;2022-11-15T08:32:57;12.50;99.90
39277;DHT22;63149;48.086;-1.606;2022-11-15T08:35:25;12.50;99.90
39277;DHT22;63149;48.086;-1.606;2022-11-15T08:37:52;12.60;99.90
39277;DHT22;63149;48.086;-1.606;2022-11-15T08:40:19;12.60;99.90
39277;DHT22;63149;48.086;-1.606;2022-11-15T08:42:46;12.60;99.90
39277;DHT22;63149;48.086;-1.606;2022-11-15T08:45:12;12.70;99.90
39277;DHT22;63149;48.086;-1.606;2022-11-15T08:47:39;12.70;99.90
39277;DHT22;63149;48.086;-1.606;2022-11-15T08:50:06;12.70;99.90
39277;DHT22;63149;48.086;-1.606;2022-11-15T08:52:34;12.80;99.90
39277;DHT22;63149;48.086;-1.606;2022-11-15T08:55:01;12.80;99.90
39277;DHT22;63149;48.086;-1.606;2022-11-15T08:57:28;12.80;99.90
39277;DHT22;63149;48.086;-1.606;2022-11-15T08:59:55;12.80;99.90
39277;DHT22;63149;48.086;-1.606;2022-11-15T09:02:22;12.80;99.90
39277;DHT22;63149;48.086;-1.606;2022-11-15T09:04:49;12.90;99.90
39277;DHT22;63149;48.086;-1.606;2022-11-15T09:07:15;12.90;99.90
39277;DHT22;63149;48.086;-1.606;2022-11-15T09:09:45;13.00;99.90
39277;DHT22;63149;48.086;-1.606;2022-11-15T09:12:12;13.00;99.90
39277;DHT22;63149;48.086;-1.606;2022-11-15T09:14:39;13.00;99.90
39277;DHT22;63149;48.086;-1.606;2022-11-15T09:17:06;13.00;99.90
39277;DHT22;63149;48.086;-1.606;2022-11-15T09:19:33;13.00;99.90
39277;DHT22;63149;48.086;-1.606;2022-11-15T09:22:00;13.10;99.90
39277;DHT22;63149;48.086;-1.606;2022-11-15T09:24:27;13.00;99.90
39277;DHT22;63149;48.086;-1.606;2022-11-15T09:26:55;13.00;99.90
39277;DHT22;63149;48.086;-1.606;2022-11-15T09:29:21;13.00;99.90
39277;DHT22;63149;48.086;-1.606;2022-11-15T09:31:48;13.10;99.90
39277;DHT22;63149;48.086;-1.606;2022-11-15T09:34:15;13.10;99.90
39277;DHT22;63149;48.086;-1.606;2022-11-15T09:36:42;13.10;99.90
39277;DHT22;63149;48.086;-1.606;2022-11-15T09:39:08;13.20;99.90
39277;DHT22;63149;48.086;-1.606;2022-11-15T09:41:54;13.10;99.90
39277;DHT22;63149;48.086;-1.606;2022-11-15T09:44:38;13.10;99.90
39277;DHT22;63149;48.086;-1.606;2022-11-15T09:47:10;13.20;99.90
39277;DHT22;63149;48.086;-1.606;2022-11-15T09:49:45;13.20;99.90
39277;DHT22;63149;48.086;-1.606;2022-11-15T09:52:13;13.20;99.90
39277;DHT22;63149;48.086;-1.606;2022-11-15T09:54:41;13.20;99.90
39277;DHT22;63149;48.086;-1.606;2022-11-15T09:57:11;13.20;99.90
39277;DHT22;63149;48.086;-1.606;2022-11-15T09:59:58;13.20;99.90
39277;DHT22;63149;48.086;-1.606;2022-11-15T10:02:33;13.20;99.90
39277;DHT22;63149;48.086;-1.606;2022-11-15T10:05:01;13.20;99.90
39277;DHT22;63149;48.086;-1.606;2022-11-15T10:07:30;13.20;99.90
39277;DHT22;63149;48.086;-1.606;2022-11-15T10:09:59;13.20;99.90
39277;DHT22;63149;48.086;-1.606;2022-11-15T10:12:27;13.20;99.90
39277;DHT22;63149;48.086;-1.606;2022-11-15T10:14:57;13.20;99.90
39277;DHT22;63149;48.086;-1.606;2022-11-15T10:20:14;13.20;99.90
39277;DHT22;63149;48.086;-1.606;2022-11-15T10:22:44;13.30;99.90
39277;DHT22;63149;48.086;-1.606;2022-11-15T10:25:14;13.30;99.90
39277;DHT22;63149;48.086;-1.606;2022-11-15T10:27:43;13.30;99.90
39277;DHT22;63149;48.086;-1.606;2022-11-15T10:30:11;13.40;99.90
39277;DHT22;63149;48.086;-1.606;2022-11-15T10:32:38;13.40;99.90
39277;DHT22;63149;48.086;-1.606;2022-11-15T10:35:17;13.40;99.90
39277;DHT22;63149;48.086;-1.606;2022-11-15T10:37:44;13.50;99.90
39277;DHT22;63149;48.086;-1.606;2022-11-15T10:40:15;13.50;99.90
39277;DHT22;63149;48.086;-1.606;2022-11-15T10:42:42;13.50;99.90
39277;DHT22;63149;48.086;-1.606;2022-11-15T10:45:22;13.60;99.90
39277;DHT22;63149;48.086;-1.606;2022-11-15T10:47:49;13.70;99.90
39277;DHT22;63149;48.086;-1.606;2022-11-15T10:50:26;13.80;99.90
39277;DHT22;63149;48.086;-1.606;2022-11-15T10:52:53;13.90;99.90
39277;DHT22;63149;48.086;-1.606;2022-11-15T10:55:22;13.90;99.90
39277;DHT22;63149;48.086;-1.606;2022-11-15T10:57:51;14.00;99.90
39277;DHT22;63149;48.086;-1.606;2022-11-15T11:00:27;14.00;99.90
39277;DHT22;63149;48.086;-1.606;2022-11-15T11:02:56;14.10;99.90
39277;DHT22;63149;48.086;-1.606;2022-11-15T11:05:29;14.20;99.90
39277;DHT22;63149;48.086;-1.606;2022-11-15T11:07:57;14.20;99.90
39277;DHT22;63149;48.086;-1.606;2022-11-15T11:10:24;14.20;99.90
39277;DHT22;63149;48.086;-1.606;2022-11-15T11:12:51;14.20;99.90
39277;DHT22;63149;48.086;-1.606;2022-11-15T11:15:18;14.30;99.90
39277;DHT22;63149;48.086;-1.606;2022-11-15T11:17:50;14.30;99.90
39277;DHT22;63149;48.086;-1.606;2022-11-15T11:20:18;14.30;99.90
39277;DHT22;63149;48.086;-1.606;2022-11-15T11:22:51;14.30;99.90
39277;DHT22;63149;48.086;-1.606;2022-11-15T11:25:21;14.50;99.90
39277;DHT22;63149;48.086;-1.606;2022-11-15T11:27:54;14.70;99.90
39277;DHT22;63149;48.086;-1.606;2022-11-15T11:30:25;14.80;99.90
39277;DHT22;63149;48.086;-1.606;2022-11-15T11:33:00;15.00;99.90
39277;DHT22;63149;48.086;-1.606;2022-11-15T11:35:32;14.90;99.90
39277;DHT22;63149;48.086;-1.606;2022-11-15T11:38:06;15.10;99.90
39277;DHT22;63149;48.086;-1.606;2022-11-15T11:40:34;15.10;99.90
39277;DHT22;63149;48.086;-1.606;2022-11-15T11:43:04;15.20;99.90
39277;DHT22;63149;48.086;-1.606;2022-11-15T11:45:43;15.30;99.90
39277;DHT22;63149;48.086;-1.606;2022-11-15T11:48:12;15.50;99.90
39277;DHT22;63149;48.086;-1.606;2022-11-15T11:50:39;15.80;99.90
39277;DHT22;63149;48.086;-1.606;2022-11-15T11:53:11;16.30;99.90
39277;DHT22;63149;48.086;-1.606;2022-11-15T11:55:39;15.90;99.90
39277;DHT22;63149;48.086;-1.606;2022-11-15T11:58:10;16.50;99.90
39277;DHT22;63149;48.086;-1.606;2022-11-15T12:00:39;15.90;99.90
39277;DHT22;63149;48.086;-1.606;2022-11-15T12:03:08;15.60;99.90
39277;DHT22;63149;48.086;-1.606;2022-11-15T12:05:36;15.70;99.90
39277;DHT22;63149;48.086;-1.606;2022-11-15T12:10:56;15.50;99.90
39277;DHT22;63149;48.086;-1.606;2022-11-15T12:13:25;15.90;99.90
39277;DHT22;63149;48.086;-1.606;2022-11-15T12:15:53;15.70;99.90
39277;DHT22;63149;48.086;-1.606;2022-11-15T12:18:22;15.60;99.90
39277;DHT22;63149;48.086;-1.606;2022-11-15T12:20:50;18.60;99.90
39277;DHT22;63149;48.086;-1.606;2022-11-15T12:23:20;19.50;99.90
39277;DHT22;63149;48.086;-1.606;2022-11-15T12:25:48;20.40;99.90
39277;DHT22;63149;48.086;-1.606;2022-11-15T12:28:26;20.60;99.90
39277;DHT22;63149;48.086;-1.606;2022-11-15T12:30:59;21.00;99.90
39277;DHT22;63149;48.086;-1.606;2022-11-15T12:33:34;20.80;99.90
39277;DHT22;63149;48.086;-1.606;2022-11-15T12:36:03;21.70;99.90
39277;DHT22;63149;48.086;-1.606;2022-11-15T12:41:13;21.70;99.90
39277;DHT22;63149;48.086;-1.606;2022-11-15T12:43:41;22.30;99.90
39277;DHT22;63149;48.086;-1.606;2022-11-15T12:46:13;22.20;99.90
39277;DHT22;63149;48.086;-1.606;2022-11-15T12:48:49;21.80;99.90
39277;DHT22;63149;48.086;-1.606;2022-11-15T12:51:17;21.00;99.90
39277;DHT22;63149;48.086;-1.606;2022-11-15T12:53:45;21.60;99.90
39277;DHT22;63149;48.086;-1.606;2022-11-15T12:58:58;21.00;99.90
39277;DHT22;63149;48.086;-1.606;2022-11-15T13:04:21;17.90;99.90
39277;DHT22;63149;48.086;-1.606;2022-11-15T13:06:50;17.10;99.90
39277;DHT22;63149;48.086;-1.606;2022-11-15T13:12:02;16.50;99.90
39277;DHT22;63149;48.086;-1.606;2022-11-15T13:14:40;16.40;99.90
39277;DHT22;63149;48.086;-1.606;2022-11-15T13:17:17;16.20;99.90
39277;DHT22;63149;48.086;-1.606;2022-11-15T13:19:47;15.90;99.90
39277;DHT22;63149;48.086;-1.606;2022-11-15T13:22:14;15.60;99.90
39277;DHT22;63149;48.086;-1.606;2022-11-15T13:24:58;15.40;99.90
39277;DHT22;63149;48.086;-1.606;2022-11-15T13:27:25;15.30;99.90
39277;DHT22;63149;48.086;-1.606;2022-11-15T13:29:53;15.10;99.90
39277;DHT22;63149;48.086;-1.606;2022-11-15T13:32:20;15.10;99.90
39277;DHT22;63149;48.086;-1.606;2022-11-15T13:34:48;14.80;99.90
39277;DHT22;63149;48.086;-1.606;2022-11-15T13:37:27;14.90;99.90
39277;DHT22;63149;48.086;-1.606;2022-11-15T13:39:57;14.80;99.90
39277;DHT22;63149;48.086;-1.606;2022-11-15T13:42:36;14.70;99.90
39277;DHT22;63149;48.086;-1.606;2022-11-15T13:45:11;14.80;99.90
39277;DHT22;63149;48.086;-1.606;2022-11-15T13:47:39;14.80;99.90
39277;DHT22;63149;48.086;-1.606;2022-11-15T13:50:05;14.80;99.90
39277;DHT22;63149;48.086;-1.606;2022-11-15T13:52:33;14.70;99.90
39277;DHT22;63149;48.086;-1.606;2022-11-15T13:55:01;14.60;99.90
39277;DHT22;63149;48.086;-1.606;2022-11-15T13:57:29;14.50;99.90
39277;DHT22;63149;48.086;-1.606;2022-11-15T13:59:57;14.50;99.90
39277;DHT22;63149;48.086;-1.606;2022-11-15T14:02:26;14.40;99.90
39277;DHT22;63149;48.086;-1.606;2022-11-15T14:04:54;14.60;99.90
39277;DHT22;63149;48.086;-1.606;2022-11-15T14:07:23;14.70;99.90
39277;DHT22;63149;48.086;-1.606;2022-11-15T14:09:50;14.90;99.90
39277;DHT22;63149;48.086;-1.606;2022-11-15T14:12:28;14.90;99.90
39277;DHT22;63149;48.086;-1.606;2022-11-15T14:14:55;14.90;99.90
39277;DHT22;63149;48.086;-1.606;2022-11-15T14:17:34;14.70;99.90
39277;DHT22;63149;48.086;-1.606;2022-11-15T14:20:01;14.60;99.90
39277;DHT22;63149;48.086;-1.606;2022-11-15T14:22:29;14.60;99.90
39277;DHT22;63149;48.086;-1.606;2022-11-15T14:25:07;14.50;99.90
39277;DHT22;63149;48.086;-1.606;2022-11-15T14:27:34;14.40;99.90
39277;DHT22;63149;48.086;-1.606;2022-11-15T14:30:01;14.40;99.90
39277;DHT22;63149;48.086;-1.606;2022-11-15T14:32:28;14.40;99.90
39277;DHT22;63149;48.086;-1.606;2022-11-15T14:34:57;14.50;99.90
39277;DHT22;63149;48.086;-1.606;2022-11-15T14:37:25;14.50;99.90
39277;DHT22;63149;48.086;-1.606;2022-11-15T14:39:52;14.50;99.90
39277;DHT22;63149;48.086;-1.606;2022-11-15T14:42:20;14.50;99.90
39277;DHT22;63149;48.086;-1.606;2022-11-15T14:44:46;14.40;99.90
39277;DHT22;63149;48.086;-1.606;2022-11-15T14:47:13;14.40;99.90
39277;DHT22;63149;48.086;-1.606;2022-11-15T14:49:40;14.40;99.90
39277;DHT22;63149;48.086;-1.606;2022-11-15T14:52:27;14.30;99.90
39277;DHT22;63149;48.086;-1.606;2022-11-15T14:54:54;14.30;99.90
39277;DHT22;63149;48.086;-1.606;2022-11-15T14:57:21;14.20;99.90
39277;DHT22;63149;48.086;-1.606;2022-11-15T14:59:48;14.20;99.90
39277;DHT22;63149;48.086;-1.606;2022-11-15T15:02:15;14.10;99.90
39277;DHT22;63149;48.086;-1.606;2022-11-15T15:04:42;14.10;99.90
39277;DHT22;63149;48.086;-1.606;2022-11-15T15:07:09;14.00;99.90
39277;DHT22;63149;48.086;-1.606;2022-11-15T15:09:37;14.10;99.90
39277;DHT22;63149;48.086;-1.606;2022-11-15T15:12:04;14.00;99.90
39277;DHT22;63149;48.086;-1.606;2022-11-15T15:14:32;14.00;99.90
39277;DHT22;63149;48.086;-1.606;2022-11-15T15:16:58;14.00;99.90
39277;DHT22;63149;48.086;-1.606;2022-11-15T15:19:25;13.90;99.90
39277;DHT22;63149;48.086;-1.606;2022-11-15T15:21:52;13.70;99.90
39277;DHT22;63149;48.086;-1.606;2022-11-15T15:24:19;13.70;99.90
39277;DHT22;63149;48.086;-1.606;2022-11-15T15:26:47;13.60;99.90
39277;DHT22;63149;48.086;-1.606;2022-11-15T15:29:13;13.50;99.90
39277;DHT22;63149;48.086;-1.606;2022-11-15T15:31:40;13.50;99.90
39277;DHT22;63149;48.086;-1.606;2022-11-15T15:34:07;13.40;99.90
39277;DHT22;63149;48.086;-1.606;2022-11-15T15:36:34;13.30;99.90
39277;DHT22;63149;48.086;-1.606;2022-11-15T15:39:00;13.30;99.90
39277;DHT22;63149;48.086;-1.606;2022-11-15T15:41:27;13.20;99.90
39277;DHT22;63149;48.086;-1.606;2022-11-15T15:43:55;13.20;99.90
39277;DHT22;63149;48.086;-1.606;2022-11-15T15:46:22;13.10;99.90
39277;DHT22;63149;48.086;-1.606;2022-11-15T15:48:49;13.10;99.90
39277;DHT22;63149;48.086;-1.606;2022-11-15T15:51:15;13.10;99.90
39277;DHT22;63149;48.086;-1.606;2022-11-15T15:53:42;13.10;99.90
39277;DHT22;63149;48.086;-1.606;2022-11-15T15:56:09;13.00;99.90
39277;DHT22;63149;48.086;-1.606;2022-11-15T15:58:35;13.00;99.90
39277;DHT22;63149;48.086;-1.606;2022-11-15T16:01:04;13.00;99.90
39277;DHT22;63149;48.086;-1.606;2022-11-15T16:03:31;12.90;99.90
39277;DHT22;63149;48.086;-1.606;2022-11-15T16:05:57;12.90;99.90
39277;DHT22;63149;48.086;-1.606;2022-11-15T16:08:24;12.80;99.90
39277;DHT22;63149;48.086;-1.606;2022-11-15T16:10:52;12.80;99.90
39277;DHT22;63149;48.086;-1.606;2022-11-15T16:13:19;12.70;99.90
39277;DHT22;63149;48.086;-1.606;2022-11-15T16:15:46;12.70;99.90
39277;DHT22;63149;48.086;-1.606;2022-11-15T16:18:16;12.60;99.90
39277;DHT22;63149;48.086;-1.606;2022-11-15T16:20:43;12.50;99.90
39277;DHT22;63149;48.086;-1.606;2022-11-15T16:23:12;12.50;99.90
39277;DHT22;63149;48.086;-1.606;2022-11-15T16:25:40;12.40;99.90
39277;DHT22;63149;48.086;-1.606;2022-11-15T16:28:17;12.40;99.90
39277;DHT22;63149;48.086;-1.606;2022-11-15T16:30:44;12.30;99.90
39277;DHT22;63149;48.086;-1.606;2022-11-15T16:33:11;12.30;99.90
39277;DHT22;63149;48.086;-1.606;2022-11-15T16:35:39;12.30;99.90
39277;DHT22;63149;48.086;-1.606;2022-11-15T16:38:07;12.20;99.90
39277;DHT22;63149;48.086;-1.606;2022-11-15T16:40:34;12.20;99.90
39277;DHT22;63149;48.086;-1.606;2022-11-15T16:43:01;12.10;99.90
39277;DHT22;63149;48.086;-1.606;2022-11-15T16:45:31;12.10;99.90
39277;DHT22;63149;48.086;-1.606;2022-11-15T16:47:59;12.10;99.90
39277;DHT22;63149;48.086;-1.606;2022-11-15T16:50:27;12.00;99.90
39277;DHT22;63149;48.086;-1.606;2022-11-15T16:52:56;12.00;99.90
39277;DHT22;63149;48.086;-1.606;2022-11-15T16:55:24;12.00;99.90
39277;DHT22;63149;48.086;-1.606;2022-11-15T16:57:51;11.90;99.90
39277;DHT22;63149;48.086;-1.606;2022-11-15T17:00:18;11.80;99.90
39277;DHT22;63149;48.086;-1.606;2022-11-15T17:02:45;11.80;99.90
39277;DHT22;63149;48.086;-1.606;2022-11-15T17:05:13;11.70;99.90
39277;DHT22;63149;48.086;-1.606;2022-11-15T17:07:40;11.70;99.90
39277;DHT22;63149;48.086;-1.606;2022-11-15T17:10:09;11.60;99.90
39277;DHT22;63149;48.086;-1.606;2022-11-15T17:12:36;11.60;99.90
39277;DHT22;63149;48.086;-1.606;2022-11-15T17:15:04;11.50;99.90
39277;DHT22;63149;48.086;-1.606;2022-11-15T17:17:31;11.50;99.90
39277;DHT22;63149;48.086;-1.606;2022-11-15T17:19:58;11.40;99.90
39277;DHT22;63149;48.086;-1.606;2022-11-15T17:22:24;11.40;99.90
39277;DHT22;63149;48.086;-1.606;2022-11-15T17:24:51;11.40;99.90
39277;DHT22;63149;48.086;-1.606;2022-11-15T17:27:19;11.30;99.90
39277;DHT22;63149;48.086;-1.606;2022-11-15T17:29:46;11.30;99.90
39277;DHT22;63149;48.086;-1.606;2022-11-15T17:32:12;11.30;99.90
39277;DHT22;63149;48.086;-1.606;2022-11-15T17:34:39;11.30;99.90
39277;DHT22;63149;48.086;-1.606;2022-11-15T17:37:06;11.20;99.90
39277;DHT22;63149;48.086;-1.606;2022-11-15T17:39:33;11.20;99.90
39277;DHT22;63149;48.086;-1.606;2022-11-15T17:41:59;11.10;99.90
39277;DHT22;63149;48.086;-1.606;2022-11-15T17:44:27;11.10;99.90
39277;DHT22;63149;48.086;-1.606;2022-11-15T17:46:54;11.10;99.90
39277;DHT22;63149;48.086;-1.606;2022-11-15T17:49:21;11.00;99.90
39277;DHT22;63149;48.086;-1.606;2022-11-15T17:51:47;11.00;99.90
39277;DHT22;63149;48.086;-1.606;2022-11-15T17:54:14;11.00;99.90
39277;DHT22;63149;48.086;-1.606;2022-11-15T17:56:41;11.00;99.90
39277;DHT22;63149;48.086;-1.606;2022-11-15T17:59:08;11.00;99.90
39277;DHT22;63149;48.086;-1.606;2022-11-15T18:01:36;10.90;99.90
39277;DHT22;63149;48.086;-1.606;2022-11-15T18:04:04;10.90;99.90
39277;DHT22;63149;48.086;-1.606;2022-11-15T18:06:33;10.90;99.90
39277;DHT22;63149;48.086;-1.606;2022-11-15T18:09:00;10.90;99.90
39277;DHT22;63149;48.086;-1.606;2022-11-15T18:11:28;10.90;99.90
39277;DHT22;63149;48.086;-1.606;2022-11-15T18:13:55;10.80;99.90
39277;DHT22;63149;48.086;-1.606;2022-11-15T18:16:23;10.80;99.90
39277;DHT22;63149;48.086;-1.606;2022-11-15T18:18:51;10.80;99.90
39277;DHT22;63149;48.086;-1.606;2022-11-15T18:21:19;10.70;99.90
39277;DHT22;63149;48.086;-1.606;2022-11-15T18:23:46;10.80;99.90
39277;DHT22;63149;48.086;-1.606;2022-11-15T18:26:14;10.80;99.90
39277;DHT22;63149;48.086;-1.606;2022-11-15T18:28:41;10.80;99.90
39277;DHT22;63149;48.086;-1.606;2022-11-15T18:31:11;10.70;99.90
39277;DHT22;63149;48.086;-1.606;2022-11-15T18:33:38;10.60;99.90
39277;DHT22;63149;48.086;-1.606;2022-11-15T18:36:09;10.70;99.90
39277;DHT22;63149;48.086;-1.606;2022-11-15T18:38:36;10.70;99.90
39277;DHT22;63149;48.086;-1.606;2022-11-15T18:41:04;10.70;99.90
39277;DHT22;63149;48.086;-1.606;2022-11-15T18:43:31;10.70;99.90
39277;DHT22;63149;48.086;-1.606;2022-11-15T18:46:00;10.60;99.90
39277;DHT22;63149;48.086;-1.606;2022-11-15T18:48:27;10.60;99.90
39277;DHT22;63149;48.086;-1.606;2022-11-15T18:50:58;10.60;99.90
39277;DHT22;63149;48.086;-1.606;2022-11-15T18:53:26;10.50;99.90
39277;DHT22;63149;48.086;-1.606;2022-11-15T18:55:53;10.50;99.90
39277;DHT22;63149;48.086;-1.606;2022-11-15T18:58:21;10.40;99.90
39277;DHT22;63149;48.086;-1.606;2022-11-15T19:00:48;10.40;99.90
39277;DHT22;63149;48.086;-1.606;2022-11-15T19:03:15;10.40;99.90
39277;DHT22;63149;48.086;-1.606;2022-11-15T19:05:41;10.40;99.90
39277;DHT22;63149;48.086;-1.606;2022-11-15T19:08:08;10.30;99.90
39277;DHT22;63149;48.086;-1.606;2022-11-15T19:10:36;10.40;99.90
39277;DHT22;63149;48.086;-1.606;2022-11-15T19:13:03;10.40;99.90
39277;DHT22;63149;48.086;-1.606;2022-11-15T19:15:29;10.30;99.90
39277;DHT22;63149;48.086;-1.606;2022-11-15T19:17:56;10.30;99.90
39277;DHT22;63149;48.086;-1.606;2022-11-15T19:20:23;10.30;99.90
39277;DHT22;63149;48.086;-1.606;2022-11-15T19:22:50;10.20;99.90
39277;DHT22;63149;48.086;-1.606;2022-11-15T19:25:16;10.20;99.90
39277;DHT22;63149;48.086;-1.606;2022-11-15T19:27:45;10.20;99.90
39277;DHT22;63149;48.086;-1.606;2022-11-15T19:30:12;10.10;99.90
39277;DHT22;63149;48.086;-1.606;2022-11-15T19:32:39;10.00;99.90
39277;DHT22;63149;48.086;-1.606;2022-11-15T19:35:05;10.00;99.90
39277;DHT22;63149;48.086;-1.606;2022-11-15T19:37:33;9.90;99.90
39277;DHT22;63149;48.086;-1.606;2022-11-15T19:40:00;9.90;99.90
39277;DHT22;63149;48.086;-1.606;2022-11-15T19:42:26;9.90;99.90
39277;DHT22;63149;48.086;-1.606;2022-11-15T19:44:54;9.80;99.90
39277;DHT22;63149;48.086;-1.606;2022-11-15T19:47:21;9.80;99.90
39277;DHT22;63149;48.086;-1.606;2022-11-15T19:49:48;9.80;99.90
39277;DHT22;63149;48.086;-1.606;2022-11-15T19:52:15;9.90;99.90
39277;DHT22;63149;48.086;-1.606;2022-11-15T19:54:42;9.80;99.90
39277;DHT22;63149;48.086;-1.606;2022-11-15T19:57:08;9.80;99.90
39277;DHT22;63149;48.086;-1.606;2022-11-15T19:59:35;9.80;99.90
39277;DHT22;63149;48.086;-1.606;2022-11-15T20:02:04;9.80;99.90
39277;DHT22;63149;48.086;-1.606;2022-11-15T20:04:31;9.80;99.90
39277;DHT22;63149;48.086;-1.606;2022-11-15T20:06:57;9.80;99.90
39277;DHT22;63149;48.086;-1.606;2022-11-15T20:09:24;9.80;99.90
39277;DHT22;63149;48.086;-1.606;2022-11-15T20:11:51;9.70;99.90
39277;DHT22;63149;48.086;-1.606;2022-11-15T20:14:17;9.80;99.90
39277;DHT22;63149;48.086;-1.606;2022-11-15T20:16:44;9.80;99.90
39277;DHT22;63149;48.086;-1.606;2022-11-15T20:19:12;9.80;99.90
39277;DHT22;63149;48.086;-1.606;2022-11-15T20:21:40;9.80;99.90
39277;DHT22;63149;48.086;-1.606;2022-11-15T20:24:07;9.80;99.90
39277;DHT22;63149;48.086;-1.606;2022-11-15T20:26:34;9.90;99.90
39277;DHT22;63149;48.086;-1.606;2022-11-15T20:29:01;9.80;99.90
39277;DHT22;63149;48.086;-1.606;2022-11-15T20:31:28;9.80;99.90
39277;DHT22;63149;48.086;-1.606;2022-11-15T20:33:55;9.80;99.90
39277;DHT22;63149;48.086;-1.606;2022-11-15T20:36:23;9.80;99.90
39277;DHT22;63149;48.086;-1.606;2022-11-15T20:38:50;9.80;99.90
39277;DHT22;63149;48.086;-1.606;2022-11-15T20:41:17;9.80;99.90
39277;DHT22;63149;48.086;-1.606;2022-11-15T20:43:43;9.80;99.90
39277;DHT22;63149;48.086;-1.606;2022-11-15T20:46:10;9.80;99.90
39277;DHT22;63149;48.086;-1.606;2022-11-15T20:48:37;9.80;99.90
39277;DHT22;63149;48.086;-1.606;2022-11-15T20:51:05;9.80;99.90
39277;DHT22;63149;48.086;-1.606;2022-11-15T20:53:33;9.80;99.90
39277;DHT22;63149;48.086;-1.606;2022-11-15T20:56:04;9.80;99.90
39277;DHT22;63149;48.086;-1.606;2022-11-15T20:58:32;9.80;99.90
39277;DHT22;63149;48.086;-1.606;2022-11-15T21:00:58;9.80;99.90
39277;DHT22;63149;48.086;-1.606;2022-11-15T21:03:25;9.70;99.90
39277;DHT22;63149;48.086;-1.606;2022-11-15T21:05:52;9.80;99.90
39277;DHT22;63149;48.086;-1.606;2022-11-15T21:08:19;9.70;99.90
39277;DHT22;63149;48.086;-1.606;2022-11-15T21:10:49;9.70;99.90
39277;DHT22;63149;48.086;-1.606;2022-11-15T21:13:33;9.70;99.90
39277;DHT22;63149;48.086;-1.606;2022-11-15T21:16:00;9.70;99.90
39277;DHT22;63149;48.086;-1.606;2022-11-15T21:18:27;9.60;99.90
39277;DHT22;63149;48.086;-1.606;2022-11-15T21:20:54;9.60;99.90
39277;DHT22;63149;48.086;-1.606;2022-11-15T21:23:20;9.50;99.90
39277;DHT22;63149;48.086;-1.606;2022-11-15T21:25:49;9.50;99.90
39277;DHT22;63149;48.086;-1.606;2022-11-15T21:28:16;9.40;99.90
39277;DHT22;63149;48.086;-1.606;2022-11-15T21:30:50;9.40;99.90
39277;DHT22;63149;48.086;-1.606;2022-11-15T21:33:17;9.40;99.90
39277;DHT22;63149;48.086;-1.606;2022-11-15T21:35:45;9.30;99.90
39277;DHT22;63149;48.086;-1.606;2022-11-15T21:38:12;9.40;99.90
39277;DHT22;63149;48.086;-1.606;2022-11-15T21:40:39;9.30;99.90